Terminal Aerodrome Forecast
Issued by NWS

Home | Current Version | Previous Version | Text Only | Print | Product List | Glossary On
Versions: 1 2 3 4 5 6 7 8 9 10 11 12 13
000
FTUS42 TJSJ 181700
TAFJMZ
TAF
TJMZ 181734Z 1818/1918 26006KT P6SM SCT040
     FM181930 VRB08KT P6SM VCTS BKN030CB
     FM182230 09004KT P6SM SCT040
     FM191530 27010KT P6SM VCSH SCT025 BKN040
      AMD NOT SKED 1823/1916=

USA.gov is the U.S. government's official web portal to all federal, state and local government web resources and services.